sensor_id;sensor_type;location;lat;lon;timestamp;temperature;humidity
34406;DHT22;20658;45.630;8.886;2023-04-25T00:01:09;12.80;86.50
34406;DHT22;20658;45.630;8.886;2023-04-25T00:03:41;12.70;86.40
34406;DHT22;20658;45.630;8.886;2023-04-25T00:06:14;12.70;86.10
34406;DHT22;20658;45.630;8.886;2023-04-25T00:08:42;12.70;86.40
34406;DHT22;20658;45.630;8.886;2023-04-25T00:11:16;12.70;86.50
34406;DHT22;20658;45.630;8.886;2023-04-25T00:13:49;12.70;86.50
34406;DHT22;20658;45.630;8.886;2023-04-25T00:16:23;12.70;86.60
34406;DHT22;20658;45.630;8.886;2023-04-25T00:18:52;13.10;86.00
34406;DHT22;20658;45.630;8.886;2023-04-25T00:21:26;12.70;86.40
34406;DHT22;20658;45.630;8.886;2023-04-25T00:24:00;12.60;85.90
34406;DHT22;20658;45.630;8.886;2023-04-25T00:26:34;12.70;86.70
34406;DHT22;20658;45.630;8.886;2023-04-25T00:29:08;12.60;86.80
34406;DHT22;20658;45.630;8.886;2023-04-25T00:31:41;12.60;86.60
34406;DHT22;20658;45.630;8.886;2023-04-25T00:34:15;12.60;86.30
34406;DHT22;20658;45.630;8.886;2023-04-25T00:36:49;12.80;87.30
34406;DHT22;20658;45.630;8.886;2023-04-25T00:39:23;12.60;87.40
34406;DHT22;20658;45.630;8.886;2023-04-25T00:41:56;12.60;87.70
34406;DHT22;20658;45.630;8.886;2023-04-25T00:44:30;12.50;87.10
34406;DHT22;20658;45.630;8.886;2023-04-25T00:47:04;12.50;87.50
34406;DHT22;20658;45.630;8.886;2023-04-25T00:49:39;12.80;87.20
34406;DHT22;20658;45.630;8.886;2023-04-25T00:52:07;12.50;87.30
34406;DHT22;20658;45.630;8.886;2023-04-25T00:54:40;12.90;88.20
34406;DHT22;20658;45.630;8.886;2023-04-25T00:57:14;12.50;88.00
34406;DHT22;20658;45.630;8.886;2023-04-25T00:59:48;12.80;87.80
34406;DHT22;20658;45.630;8.886;2023-04-25T01:02:23;12.50;87.50
34406;DHT22;20658;45.630;8.886;2023-04-25T01:04:58;12.50;86.90
34406;DHT22;20658;45.630;8.886;2023-04-25T01:07:32;12.40;87.00
34406;DHT22;20658;45.630;8.886;2023-04-25T01:10:07;12.40;87.10
34406;DHT22;20658;45.630;8.886;2023-04-25T01:12:41;12.40;88.10
34406;DHT22;20658;45.630;8.886;2023-04-25T01:15:14;12.40;88.70
34406;DHT22;20658;45.630;8.886;2023-04-25T01:17:47;12.40;88.30
34406;DHT22;20658;45.630;8.886;2023-04-25T01:20:22;12.30;88.00
34406;DHT22;20658;45.630;8.886;2023-04-25T01:22:53;12.30;88.50
34406;DHT22;20658;45.630;8.886;2023-04-25T01:25:28;12.30;88.60
34406;DHT22;20658;45.630;8.886;2023-04-25T01:28:03;12.90;89.30
34406;DHT22;20658;45.630;8.886;2023-04-25T01:30:32;12.30;89.50
34406;DHT22;20658;45.630;8.886;2023-04-25T01:33:06;12.60;89.00
34406;DHT22;20658;45.630;8.886;2023-04-25T01:35:40;12.20;88.30
34406;DHT22;20658;45.630;8.886;2023-04-25T01:38:15;12.20;88.90
34406;DHT22;20658;45.630;8.886;2023-04-25T01:40:50;12.40;88.90
34406;DHT22;20658;45.630;8.886;2023-04-25T01:43:24;12.20;88.90
34406;DHT22;20658;45.630;8.886;2023-04-25T01:45:58;12.40;88.80
34406;DHT22;20658;45.630;8.886;2023-04-25T01:48:32;12.10;88.30
34406;DHT22;20658;45.630;8.886;2023-04-25T01:51:06;12.00;88.60
34406;DHT22;20658;45.630;8.886;2023-04-25T01:53:41;12.40;88.50
34406;DHT22;20658;45.630;8.886;2023-04-25T01:56:16;12.00;88.70
34406;DHT22;20658;45.630;8.886;2023-04-25T01:58:51;11.90;88.70
34406;DHT22;20658;45.630;8.886;2023-04-25T02:01:30;12.00;88.90
34406;DHT22;20658;45.630;8.886;2023-04-25T02:04:15;12.40;89.80
34406;DHT22;20658;45.630;8.886;2023-04-25T02:06:49;11.80;89.70
34406;DHT22;20658;45.630;8.886;2023-04-25T02:09:18;11.80;90.10
34406;DHT22;20658;45.630;8.886;2023-04-25T02:11:55;11.80;90.90
34406;DHT22;20658;45.630;8.886;2023-04-25T02:14:34;11.80;91.70
34406;DHT22;20658;45.630;8.886;2023-04-25T02:17:15;12.10;92.00
34406;DHT22;20658;45.630;8.886;2023-04-25T02:19:50;11.80;92.10
34406;DHT22;20658;45.630;8.886;2023-04-25T02:22:23;11.60;92.40
34406;DHT22;20658;45.630;8.886;2023-04-25T02:24:59;11.60;92.70
34406;DHT22;20658;45.630;8.886;2023-04-25T02:27:32;11.60;92.70
34406;DHT22;20658;45.630;8.886;2023-04-25T02:30:01;11.60;92.60
34406;DHT22;20658;45.630;8.886;2023-04-25T02:32:34;11.50;93.00
34406;DHT22;20658;45.630;8.886;2023-04-25T02:35:09;11.50;93.50
34406;DHT22;20658;45.630;8.886;2023-04-25T02:37:42;11.50;93.50
34406;DHT22;20658;45.630;8.886;2023-04-25T02:40:17;11.50;93.80
34406;DHT22;20658;45.630;8.886;2023-04-25T02:42:45;11.40;94.00
34406;DHT22;20658;45.630;8.886;2023-04-25T02:45:18;11.40;94.10
34406;DHT22;20658;45.630;8.886;2023-04-25T02:47:51;11.30;94.50
34406;DHT22;20658;45.630;8.886;2023-04-25T02:50:25;11.20;93.90
34406;DHT22;20658;45.630;8.886;2023-04-25T02:52:58;11.70;94.50
34406;DHT22;20658;45.630;8.886;2023-04-25T02:55:38;11.20;94.30
34406;DHT22;20658;45.630;8.886;2023-04-25T02:58:11;11.20;94.90
34406;DHT22;20658;45.630;8.886;2023-04-25T03:00:48;11.50;94.80
34406;DHT22;20658;45.630;8.886;2023-04-25T03:03:22;11.10;94.50
34406;DHT22;20658;45.630;8.886;2023-04-25T03:05:55;11.40;95.20
34406;DHT22;20658;45.630;8.886;2023-04-25T03:08:31;11.60;95.50
34406;DHT22;20658;45.630;8.886;2023-04-25T03:11:07;11.00;95.70
34406;DHT22;20658;45.630;8.886;2023-04-25T03:13:41;10.90;95.80
34406;DHT22;20658;45.630;8.886;2023-04-25T03:16:15;10.90;96.10
34406;DHT22;20658;45.630;8.886;2023-04-25T03:18:49;11.10;96.40
34406;DHT22;20658;45.630;8.886;2023-04-25T03:21:22;10.80;96.10
34406;DHT22;20658;45.630;8.886;2023-04-25T03:23:57;10.70;96.30
34406;DHT22;20658;45.630;8.886;2023-04-25T03:26:32;10.90;96.80
34406;DHT22;20658;45.630;8.886;2023-04-25T03:29:05;10.60;96.80
34406;DHT22;20658;45.630;8.886;2023-04-25T03:31:41;10.60;96.60
34406;DHT22;20658;45.630;8.886;2023-04-25T03:34:14;10.60;96.80
34406;DHT22;20658;45.630;8.886;2023-04-25T03:36:47;10.50;96.60
34406;DHT22;20658;45.630;8.886;2023-04-25T03:39:21;10.50;96.70
34406;DHT22;20658;45.630;8.886;2023-04-25T03:41:57;10.50;96.90
34406;DHT22;20658;45.630;8.886;2023-04-25T03:44:30;10.50;96.80
34406;DHT22;20658;45.630;8.886;2023-04-25T03:47:04;10.40;97.00
34406;DHT22;20658;45.630;8.886;2023-04-25T03:49:37;10.20;96.80
34406;DHT22;20658;45.630;8.886;2023-04-25T03:52:11;10.40;96.60
34406;DHT22;20658;45.630;8.886;2023-04-25T03:54:45;10.30;96.70
34406;DHT22;20658;45.630;8.886;2023-04-25T03:57:22;10.40;96.70
34406;DHT22;20658;45.630;8.886;2023-04-25T03:59:55;10.30;97.00
34406;DHT22;20658;45.630;8.886;2023-04-25T04:02:39;10.30;96.90
34406;DHT22;20658;45.630;8.886;2023-04-25T04:05:12;10.70;97.30
34406;DHT22;20658;45.630;8.886;2023-04-25T04:07:47;10.20;97.10
34406;DHT22;20658;45.630;8.886;2023-04-25T04:10:21;10.20;97.30
34406;DHT22;20658;45.630;8.886;2023-04-25T04:12:56;10.10;97.40
34406;DHT22;20658;45.630;8.886;2023-04-25T04:15:29;10.10;97.20
34406;DHT22;20658;45.630;8.886;2023-04-25T04:18:04;10.10;97.80
34406;DHT22;20658;45.630;8.886;2023-04-25T04:20:37;10.00;97.60
34406;DHT22;20658;45.630;8.886;2023-04-25T04:23:06;10.00;97.70
34406;DHT22;20658;45.630;8.886;2023-04-25T04:25:40;10.30;97.90
34406;DHT22;20658;45.630;8.886;2023-04-25T04:28:28;10.00;97.30
34406;DHT22;20658;45.630;8.886;2023-04-25T04:31:14;10.00;97.50
34406;DHT22;20658;45.630;8.886;2023-04-25T04:33:48;10.00;97.20
34406;DHT22;20658;45.630;8.886;2023-04-25T04:36:22;10.50;97.60
34406;DHT22;20658;45.630;8.886;2023-04-25T04:38:58;10.00;97.10
34406;DHT22;20658;45.630;8.886;2023-04-25T04:41:35;9.90;97.20
34406;DHT22;20658;45.630;8.886;2023-04-25T04:44:14;10.00;97.70
34406;DHT22;20658;45.630;8.886;2023-04-25T04:47:05;9.90;97.50
34406;DHT22;20658;45.630;8.886;2023-04-25T04:49:51;9.90;97.60
34406;DHT22;20658;45.630;8.886;2023-04-25T04:52:59;10.00;97.20
34406;DHT22;20658;45.630;8.886;2023-04-25T04:55:44;10.00;97.10
34406;DHT22;20658;45.630;8.886;2023-04-25T04:58:56;9.90;96.80
34406;DHT22;20658;45.630;8.886;2023-04-25T05:01:54;9.90;96.70
34406;DHT22;20658;45.630;8.886;2023-04-25T05:04:50;10.40;97.10
34406;DHT22;20658;45.630;8.886;2023-04-25T05:07:43;9.90;97.10
34406;DHT22;20658;45.630;8.886;2023-04-25T05:10:51;9.90;97.00
34406;DHT22;20658;45.630;8.886;2023-04-25T05:13:41;9.90;96.60
34406;DHT22;20658;45.630;8.886;2023-04-25T05:16:34;9.90;96.10
34406;DHT22;20658;45.630;8.886;2023-04-25T05:19:27;9.90;96.10
34406;DHT22;20658;45.630;8.886;2023-04-25T05:22:14;9.90;95.70
34406;DHT22;20658;45.630;8.886;2023-04-25T05:25:07;10.00;95.60
34406;DHT22;20658;45.630;8.886;2023-04-25T05:27:56;10.00;94.90
34406;DHT22;20658;45.630;8.886;2023-04-25T05:30:59;10.10;93.60
34406;DHT22;20658;45.630;8.886;2023-04-25T05:33:47;10.40;92.00
34406;DHT22;20658;45.630;8.886;2023-04-25T05:36:22;11.20;90.80
34406;DHT22;20658;45.630;8.886;2023-04-25T05:38:50;11.40;88.30
34406;DHT22;20658;45.630;8.886;2023-04-25T05:41:56;11.10;86.20
34406;DHT22;20658;45.630;8.886;2023-04-25T05:44:51;11.40;84.00
34406;DHT22;20658;45.630;8.886;2023-04-25T05:47:31;11.90;83.40
34406;DHT22;20658;45.630;8.886;2023-04-25T05:50:26;12.00;82.30
34406;DHT22;20658;45.630;8.886;2023-04-25T05:53:14;12.60;81.40
34406;DHT22;20658;45.630;8.886;2023-04-25T05:55:53;12.70;80.10
34406;DHT22;20658;45.630;8.886;2023-04-25T05:58:28;13.30;79.40
34406;DHT22;20658;45.630;8.886;2023-04-25T06:01:02;13.10;78.20
34406;DHT22;20658;45.630;8.886;2023-04-25T06:03:36;13.30;76.70
34406;DHT22;20658;45.630;8.886;2023-04-25T06:06:10;13.40;76.50
34406;DHT22;20658;45.630;8.886;2023-04-25T06:08:45;13.60;74.30
34406;DHT22;20658;45.630;8.886;2023-04-25T06:11:18;13.90;74.20
34406;DHT22;20658;45.630;8.886;2023-04-25T06:13:52;13.90;72.50
34406;DHT22;20658;45.630;8.886;2023-04-25T06:16:25;14.10;71.40
34406;DHT22;20658;45.630;8.886;2023-04-25T06:18:59;14.40;70.70
34406;DHT22;20658;45.630;8.886;2023-04-25T06:21:32;14.70;69.60
34406;DHT22;20658;45.630;8.886;2023-04-25T06:24:09;14.90;68.50
34406;DHT22;20658;45.630;8.886;2023-04-25T06:26:42;15.00;66.60
34406;DHT22;20658;45.630;8.886;2023-04-25T06:29:16;15.10;65.40
34406;DHT22;20658;45.630;8.886;2023-04-25T06:31:49;15.20;64.80
34406;DHT22;20658;45.630;8.886;2023-04-25T06:34:23;15.40;64.40
34406;DHT22;20658;45.630;8.886;2023-04-25T06:36:56;15.50;64.50
34406;DHT22;20658;45.630;8.886;2023-04-25T06:39:31;15.70;63.80
34406;DHT22;20658;45.630;8.886;2023-04-25T06:42:04;15.80;63.00
34406;DHT22;20658;45.630;8.886;2023-04-25T06:44:58;16.00;62.50
34406;DHT22;20658;45.630;8.886;2023-04-25T06:47:31;16.10;61.20
34406;DHT22;20658;45.630;8.886;2023-04-25T06:50:05;16.20;62.00
34406;DHT22;20658;45.630;8.886;2023-04-25T06:52:39;16.20;61.80
34406;DHT22;20658;45.630;8.886;2023-04-25T06:55:14;16.50;61.90
34406;DHT22;20658;45.630;8.886;2023-04-25T06:58:08;16.70;61.40
34406;DHT22;20658;45.630;8.886;2023-04-25T07:01:04;16.60;59.60
34406;DHT22;20658;45.630;8.886;2023-04-25T07:03:38;16.80;60.70
34406;DHT22;20658;45.630;8.886;2023-04-25T07:06:16;16.80;59.80
34406;DHT22;20658;45.630;8.886;2023-04-25T07:08:45;16.60;60.50
34406;DHT22;20658;45.630;8.886;2023-04-25T07:11:14;16.80;60.60
34406;DHT22;20658;45.630;8.886;2023-04-25T07:13:48;17.10;60.00
34406;DHT22;20658;45.630;8.886;2023-04-25T07:16:21;17.00;59.60
34406;DHT22;20658;45.630;8.886;2023-04-25T07:18:55;17.10;59.40
34406;DHT22;20658;45.630;8.886;2023-04-25T07:21:28;17.20;58.80
34406;DHT22;20658;45.630;8.886;2023-04-25T07:24:04;17.50;59.10
34406;DHT22;20658;45.630;8.886;2023-04-25T07:26:43;17.80;58.40
34406;DHT22;20658;45.630;8.886;2023-04-25T07:29:25;17.70;58.10
34406;DHT22;20658;45.630;8.886;2023-04-25T07:32:00;17.60;58.60
34406;DHT22;20658;45.630;8.886;2023-04-25T07:34:28;17.50;59.10
34406;DHT22;20658;45.630;8.886;2023-04-25T07:37:02;17.60;58.30
34406;DHT22;20658;45.630;8.886;2023-04-25T07:39:45;17.60;57.50
34406;DHT22;20658;45.630;8.886;2023-04-25T07:42:20;17.30;59.30
34406;DHT22;20658;45.630;8.886;2023-04-25T07:44:53;16.90;59.40
34406;DHT22;20658;45.630;8.886;2023-04-25T07:47:26;16.80;60.60
34406;DHT22;20658;45.630;8.886;2023-04-25T07:50:00;16.80;60.90
34406;DHT22;20658;45.630;8.886;2023-04-25T07:52:33;17.00;61.80
34406;DHT22;20658;45.630;8.886;2023-04-25T07:55:26;16.70;61.80
34406;DHT22;20658;45.630;8.886;2023-04-25T07:58:07;17.00;62.00
34406;DHT22;20658;45.630;8.886;2023-04-25T08:00:44;17.20;60.00
34406;DHT22;20658;45.630;8.886;2023-04-25T08:03:43;17.10;60.60
34406;DHT22;20658;45.630;8.886;2023-04-25T08:06:24;17.70;59.30
34406;DHT22;20658;45.630;8.886;2023-04-25T08:09:16;18.10;58.30
34406;DHT22;20658;45.630;8.886;2023-04-25T08:11:50;18.60;56.90
34406;DHT22;20658;45.630;8.886;2023-04-25T08:14:30;18.80;55.50
34406;DHT22;20658;45.630;8.886;2023-04-25T08:17:07;19.20;55.30
34406;DHT22;20658;45.630;8.886;2023-04-25T08:19:41;19.40;53.80
34406;DHT22;20658;45.630;8.886;2023-04-25T08:22:23;19.30;54.10
34406;DHT22;20658;45.630;8.886;2023-04-25T08:24:59;19.30;54.20
34406;DHT22;20658;45.630;8.886;2023-04-25T08:27:33;19.40;53.80
34406;DHT22;20658;45.630;8.886;2023-04-25T08:30:09;19.70;53.10
34406;DHT22;20658;45.630;8.886;2023-04-25T08:32:42;19.50;53.10
34406;DHT22;20658;45.630;8.886;2023-04-25T08:35:35;19.00;53.60
34406;DHT22;20658;45.630;8.886;2023-04-25T08:38:03;18.50;54.20
34406;DHT22;20658;45.630;8.886;2023-04-25T08:40:38;18.90;55.10
34406;DHT22;20658;45.630;8.886;2023-04-25T08:43:18;19.50;52.80
34406;DHT22;20658;45.630;8.886;2023-04-25T08:45:59;19.80;52.70
34406;DHT22;20658;45.630;8.886;2023-04-25T08:48:40;20.00;52.10
34406;DHT22;20658;45.630;8.886;2023-04-25T08:51:10;19.60;52.60
34406;DHT22;20658;45.630;8.886;2023-04-25T08:53:43;19.10;53.60
34406;DHT22;20658;45.630;8.886;2023-04-25T08:56:18;18.80;54.90
34406;DHT22;20658;45.630;8.886;2023-04-25T08:58:54;18.80;55.20
34406;DHT22;20658;45.630;8.886;2023-04-25T09:01:30;18.80;55.70
34406;DHT22;20658;45.630;8.886;2023-04-25T09:04:04;19.30;54.60
34406;DHT22;20658;45.630;8.886;2023-04-25T09:06:37;19.70;53.50
34406;DHT22;20658;45.630;8.886;2023-04-25T09:09:10;19.80;52.70
34406;DHT22;20658;45.630;8.886;2023-04-25T09:11:44;19.90;53.00
34406;DHT22;20658;45.630;8.886;2023-04-25T09:14:19;19.40;52.90
34406;DHT22;20658;45.630;8.886;2023-04-25T09:17:12;19.00;54.30
34406;DHT22;20658;45.630;8.886;2023-04-25T09:19:51;19.50;53.60
34406;DHT22;20658;45.630;8.886;2023-04-25T09:22:27;19.70;52.60
34406;DHT22;20658;45.630;8.886;2023-04-25T09:25:08;19.90;52.00
34406;DHT22;20658;45.630;8.886;2023-04-25T09:27:51;20.20;50.70
34406;DHT22;20658;45.630;8.886;2023-04-25T09:30:32;20.30;50.00
34406;DHT22;20658;45.630;8.886;2023-04-25T09:33:11;20.50;50.20
34406;DHT22;20658;45.630;8.886;2023-04-25T09:35:48;20.30;49.30
34406;DHT22;20658;45.630;8.886;2023-04-25T09:38:46;20.00;49.90
34406;DHT22;20658;45.630;8.886;2023-04-25T09:41:28;19.80;51.50
34406;DHT22;20658;45.630;8.886;2023-04-25T09:44:01;19.90;50.70
34406;DHT22;20658;45.630;8.886;2023-04-25T09:46:36;20.20;50.00
34406;DHT22;20658;45.630;8.886;2023-04-25T09:49:20;20.10;50.00
34406;DHT22;20658;45.630;8.886;2023-04-25T09:52:00;19.90;50.40
34406;DHT22;20658;45.630;8.886;2023-04-25T09:54:40;19.80;51.10
34406;DHT22;20658;45.630;8.886;2023-04-25T09:57:19;20.40;50.30
34406;DHT22;20658;45.630;8.886;2023-04-25T09:59:55;20.90;48.90
34406;DHT22;20658;45.630;8.886;2023-04-25T10:02:42;21.00;48.60
34406;DHT22;20658;45.630;8.886;2023-04-25T10:05:41;21.10;47.60
34406;DHT22;20658;45.630;8.886;2023-04-25T10:08:17;21.40;47.40
34406;DHT22;20658;45.630;8.886;2023-04-25T10:10:51;21.50;48.50
34406;DHT22;20658;45.630;8.886;2023-04-25T10:13:25;21.20;48.70
34406;DHT22;20658;45.630;8.886;2023-04-25T10:15:59;21.10;49.00
34406;DHT22;20658;45.630;8.886;2023-04-25T10:18:33;21.20;48.80
34406;DHT22;20658;45.630;8.886;2023-04-25T10:21:08;21.20;47.80
34406;DHT22;20658;45.630;8.886;2023-04-25T10:23:42;21.50;47.50
34406;DHT22;20658;45.630;8.886;2023-04-25T10:26:16;21.90;46.00
34406;DHT22;20658;45.630;8.886;2023-04-25T10:28:56;22.00;45.60
34406;DHT22;20658;45.630;8.886;2023-04-25T10:31:30;22.10;44.80
34406;DHT22;20658;45.630;8.886;2023-04-25T10:34:04;22.50;44.60
34406;DHT22;20658;45.630;8.886;2023-04-25T10:36:39;22.70;44.30
34406;DHT22;20658;45.630;8.886;2023-04-25T10:39:07;22.80;43.70
34406;DHT22;20658;45.630;8.886;2023-04-25T10:41:52;22.70;44.10
34406;DHT22;20658;45.630;8.886;2023-04-25T10:44:26;23.00;43.60
34406;DHT22;20658;45.630;8.886;2023-04-25T10:47:01;23.10;42.80
34406;DHT22;20658;45.630;8.886;2023-04-25T10:49:38;23.10;42.80
34406;DHT22;20658;45.630;8.886;2023-04-25T10:52:18;22.60;42.40
34406;DHT22;20658;45.630;8.886;2023-04-25T10:54:57;22.40;43.70
34406;DHT22;20658;45.630;8.886;2023-04-25T10:57:36;22.50;44.00
34406;DHT22;20658;45.630;8.886;2023-04-25T11:00:13;22.40;44.30
34406;DHT22;20658;45.630;8.886;2023-04-25T11:02:51;22.10;44.10
34406;DHT22;20658;45.630;8.886;2023-04-25T11:05:31;22.30;44.10
34406;DHT22;20658;45.630;8.886;2023-04-25T11:08:10;22.10;42.70
34406;DHT22;20658;45.630;8.886;2023-04-25T11:10:47;22.00;43.80
34406;DHT22;20658;45.630;8.886;2023-04-25T11:13:20;22.10;43.70
34406;DHT22;20658;45.630;8.886;2023-04-25T11:15:53;22.30;43.00
34406;DHT22;20658;45.630;8.886;2023-04-25T11:18:27;22.30;43.50
34406;DHT22;20658;45.630;8.886;2023-04-25T11:21:00;22.30;43.50
34406;DHT22;20658;45.630;8.886;2023-04-25T11:23:36;22.50;43.20
34406;DHT22;20658;45.630;8.886;2023-04-25T11:26:09;22.50;41.70
34406;DHT22;20658;45.630;8.886;2023-04-25T11:28:45;22.30;41.90
34406;DHT22;20658;45.630;8.886;2023-04-25T11:31:20;22.90;41.70
34406;DHT22;20658;45.630;8.886;2023-04-25T11:33:54;23.40;40.70
34406;DHT22;20658;45.630;8.886;2023-04-25T11:36:30;23.60;40.70
34406;DHT22;20658;45.630;8.886;2023-04-25T11:39:05;23.60;40.70
34406;DHT22;20658;45.630;8.886;2023-04-25T11:41:38;24.10;40.10
34406;DHT22;20658;45.630;8.886;2023-04-25T11:44:12;24.30;39.80
34406;DHT22;20658;45.630;8.886;2023-04-25T11:46:48;24.30;39.80
34406;DHT22;20658;45.630;8.886;2023-04-25T11:49:22;24.00;40.00
34406;DHT22;20658;45.630;8.886;2023-04-25T11:51:56;23.40;39.80
34406;DHT22;20658;45.630;8.886;2023-04-25T11:54:31;22.70;40.30
34406;DHT22;20658;45.630;8.886;2023-04-25T11:57:04;22.60;41.00
34406;DHT22;20658;45.630;8.886;2023-04-25T11:59:38;23.10;40.20
34406;DHT22;20658;45.630;8.886;2023-04-25T12:02:24;23.50;39.20
34406;DHT22;20658;45.630;8.886;2023-04-25T12:04:59;23.70;39.20
34406;DHT22;20658;45.630;8.886;2023-04-25T12:07:32;23.80;39.30
34406;DHT22;20658;45.630;8.886;2023-04-25T12:10:09;23.60;39.30
34406;DHT22;20658;45.630;8.886;2023-04-25T12:12:45;23.10;39.50
34406;DHT22;20658;45.630;8.886;2023-04-25T12:15:24;22.60;40.30
34406;DHT22;20658;45.630;8.886;2023-04-25T12:17:57;22.30;41.10
34406;DHT22;20658;45.630;8.886;2023-04-25T12:20:31;22.00;41.20
34406;DHT22;20658;45.630;8.886;2023-04-25T12:23:06;21.60;41.70
34406;DHT22;20658;45.630;8.886;2023-04-25T12:25:43;21.20;41.80
34406;DHT22;20658;45.630;8.886;2023-04-25T12:28:19;20.70;42.30
34406;DHT22;20658;45.630;8.886;2023-04-25T12:30:57;20.50;43.20
34406;DHT22;20658;45.630;8.886;2023-04-25T12:33:33;20.30;44.60
34406;DHT22;20658;45.630;8.886;2023-04-25T12:36:08;19.80;48.00
34406;DHT22;20658;45.630;8.886;2023-04-25T12:38:43;18.80;53.20
34406;DHT22;20658;45.630;8.886;2023-04-25T12:41:17;17.00;54.80
34406;DHT22;20658;45.630;8.886;2023-04-25T12:43:51;15.70;64.30
34406;DHT22;20658;45.630;8.886;2023-04-25T12:46:25;15.10;65.20
34406;DHT22;20658;45.630;8.886;2023-04-25T12:48:58;15.00;66.20
34406;DHT22;20658;45.630;8.886;2023-04-25T12:51:32;14.90;69.70
34406;DHT22;20658;45.630;8.886;2023-04-25T12:54:07;15.20;70.10
34406;DHT22;20658;45.630;8.886;2023-04-25T12:56:42;15.70;70.20
34406;DHT22;20658;45.630;8.886;2023-04-25T12:59:11;16.50;68.00
34406;DHT22;20658;45.630;8.886;2023-04-25T13:01:44;16.70;67.80
34406;DHT22;20658;45.630;8.886;2023-04-25T13:04:18;17.10;64.50
34406;DHT22;20658;45.630;8.886;2023-04-25T13:06:47;17.60;62.00
34406;DHT22;20658;45.630;8.886;2023-04-25T13:09:21;18.00;60.20
34406;DHT22;20658;45.630;8.886;2023-04-25T13:11:55;18.40;58.50
34406;DHT22;20658;45.630;8.886;2023-04-25T13:14:29;18.90;58.20
34406;DHT22;20658;45.630;8.886;2023-04-25T13:17:03;19.20;58.60
34406;DHT22;20658;45.630;8.886;2023-04-25T13:19:38;19.40;57.20
34406;DHT22;20658;45.630;8.886;2023-04-25T13:22:12;19.60;57.00
34406;DHT22;20658;45.630;8.886;2023-04-25T13:24:46;19.90;56.00
34406;DHT22;20658;45.630;8.886;2023-04-25T13:27:21;20.10;56.10
34406;DHT22;20658;45.630;8.886;2023-04-25T13:29:54;20.20;51.60
34406;DHT22;20658;45.630;8.886;2023-04-25T13:32:28;20.30;50.60
34406;DHT22;20658;45.630;8.886;2023-04-25T13:35:02;20.50;49.70
34406;DHT22;20658;45.630;8.886;2023-04-25T13:37:38;20.80;51.30
34406;DHT22;20658;45.630;8.886;2023-04-25T13:40:12;20.90;48.50
34406;DHT22;20658;45.630;8.886;2023-04-25T13:42:46;20.90;47.80
34406;DHT22;20658;45.630;8.886;2023-04-25T13:45:20;21.00;49.00
34406;DHT22;20658;45.630;8.886;2023-04-25T13:47:56;21.30;48.70
34406;DHT22;20658;45.630;8.886;2023-04-25T13:50:32;21.10;45.60
34406;DHT22;20658;45.630;8.886;2023-04-25T13:53:05;21.20;45.90
34406;DHT22;20658;45.630;8.886;2023-04-25T13:55:39;21.50;47.80
34406;DHT22;20658;45.630;8.886;2023-04-25T13:58:14;21.90;47.70
34406;DHT22;20658;45.630;8.886;2023-04-25T14:00:47;22.00;46.70
34406;DHT22;20658;45.630;8.886;2023-04-25T14:03:20;21.40;42.20
34406;DHT22;20658;45.630;8.886;2023-04-25T14:05:53;21.50;41.90
34406;DHT22;20658;45.630;8.886;2023-04-25T14:08:27;21.60;42.40
34406;DHT22;20658;45.630;8.886;2023-04-25T14:11:00;22.00;45.20
34406;DHT22;20658;45.630;8.886;2023-04-25T14:13:37;22.30;44.70
34406;DHT22;20658;45.630;8.886;2023-04-25T14:16:10;22.30;44.10
34406;DHT22;20658;45.630;8.886;2023-04-25T14:18:46;21.70;43.90
34406;DHT22;20658;45.630;8.886;2023-04-25T14:21:20;20.90;41.60
34406;DHT22;20658;45.630;8.886;2023-04-25T14:23:53;20.40;41.80
34406;DHT22;20658;45.630;8.886;2023-04-25T14:26:27;20.60;43.90
34406;DHT22;20658;45.630;8.886;2023-04-25T14:28:57;20.80;41.50
34406;DHT22;20658;45.630;8.886;2023-04-25T14:31:35;21.10;42.10
34406;DHT22;20658;45.630;8.886;2023-04-25T14:34:09;21.40;40.80
34406;DHT22;20658;45.630;8.886;2023-04-25T14:36:42;21.40;41.10
34406;DHT22;20658;45.630;8.886;2023-04-25T14:39:18;21.70;39.90
34406;DHT22;20658;45.630;8.886;2023-04-25T14:41:51;21.80;39.80
34406;DHT22;20658;45.630;8.886;2023-04-25T14:44:26;21.80;39.40
34406;DHT22;20658;45.630;8.886;2023-04-25T14:46:59;21.70;39.90
34406;DHT22;20658;45.630;8.886;2023-04-25T14:49:32;21.20;40.70
34406;DHT22;20658;45.630;8.886;2023-04-25T14:52:06;21.30;39.50
34406;DHT22;20658;45.630;8.886;2023-04-25T14:54:39;21.60;38.20
34406;DHT22;20658;45.630;8.886;2023-04-25T14:57:12;21.70;39.40
34406;DHT22;20658;45.630;8.886;2023-04-25T14:59:47;21.90;39.50
34406;DHT22;20658;45.630;8.886;2023-04-25T15:02:20;21.80;36.90
34406;DHT22;20658;45.630;8.886;2023-04-25T15:04:53;21.40;29.40
34406;DHT22;20658;45.630;8.886;2023-04-25T15:07:27;21.20;27.30
34406;DHT22;20658;45.630;8.886;2023-04-25T15:10:00;21.30;27.40
34406;DHT22;20658;45.630;8.886;2023-04-25T15:12:34;21.30;26.50
34406;DHT22;20658;45.630;8.886;2023-04-25T15:15:10;21.60;26.80
34406;DHT22;20658;45.630;8.886;2023-04-25T15:17:44;21.60;24.90
34406;DHT22;20658;45.630;8.886;2023-04-25T15:20:17;21.40;25.90
34406;DHT22;20658;45.630;8.886;2023-04-25T15:22:51;21.40;25.20
34406;DHT22;20658;45.630;8.886;2023-04-25T15:25:24;21.60;24.90
34406;DHT22;20658;45.630;8.886;2023-04-25T15:27:52;21.70;24.30
34406;DHT22;20658;45.630;8.886;2023-04-25T15:30:27;21.60;23.90
34406;DHT22;20658;45.630;8.886;2023-04-25T15:33:01;21.80;25.00
34406;DHT22;20658;45.630;8.886;2023-04-25T15:35:34;21.70;24.40
34406;DHT22;20658;45.630;8.886;2023-04-25T15:38:08;21.60;24.20
34406;DHT22;20658;45.630;8.886;2023-04-25T15:40:42;21.80;24.30
34406;DHT22;20658;45.630;8.886;2023-04-25T15:43:15;21.90;23.60
34406;DHT22;20658;45.630;8.886;2023-04-25T15:45:50;22.00;23.40
34406;DHT22;20658;45.630;8.886;2023-04-25T15:48:23;21.90;23.90
34406;DHT22;20658;45.630;8.886;2023-04-25T15:50:57;22.10;23.60
34406;DHT22;20658;45.630;8.886;2023-04-25T15:53:25;21.90;23.20
34406;DHT22;20658;45.630;8.886;2023-04-25T15:55:57;21.80;21.90
34406;DHT22;20658;45.630;8.886;2023-04-25T15:58:31;22.00;21.90
34406;DHT22;20658;45.630;8.886;2023-04-25T16:01:05;21.90;21.40
34406;DHT22;20658;45.630;8.886;2023-04-25T16:03:39;21.80;21.90
34406;DHT22;20658;45.630;8.886;2023-04-25T16:06:12;21.90;22.30
34406;DHT22;20658;45.630;8.886;2023-04-25T16:08:46;22.00;22.00
34406;DHT22;20658;45.630;8.886;2023-04-25T16:11:19;22.00;21.20
34406;DHT22;20658;45.630;8.886;2023-04-25T16:13:53;21.80;21.30
34406;DHT22;20658;45.630;8.886;2023-04-25T16:16:28;21.50;20.60
34406;DHT22;20658;45.630;8.886;2023-04-25T16:19:01;21.40;20.50
34406;DHT22;20658;45.630;8.886;2023-04-25T16:21:36;21.60;21.10
34406;DHT22;20658;45.630;8.886;2023-04-25T16:24:10;21.70;20.70
34406;DHT22;20658;45.630;8.886;2023-04-25T16:26:43;21.80;20.40
34406;DHT22;20658;45.630;8.886;2023-04-25T16:29:17;21.50;20.50